KPHL

Philadelphia International Airport

Philadelphia, Pennsylvania, USA
METAR KPHL 190554Z 24006KT 10SM FEW260 M03/M08 A3009 RMK AO2 SLP189 T10331078 10006 21039 58008
Observed Flight Rules
Jan-19 @ 05:54 UTC (an hour ago) Visual Flight Rules
Wind Visibility Clouds
240° at 6 knots 10 miles
  • Few at 26,000' AGL
Temperatures Readings
Current -3°C / 27°F
Dewpoint -8°C / 18°F
Humidity 69%
Altimeter 30.09" Hg
Pressure 1018.9 hPa
Elevation 18
METAR KPHL 190554Z 24006KT 10SM FEW260 M03/M08 A3009 RMK AO2 SLP189 T10331078 10006 21039 58008
Observed Flight Rules
Jan-19 @ 05:54 UTC
(an hour ago)
VFR
Wind Visibility
240° at 6 knots 10 miles
Clouds
  • Few at 26,000' AGL
Temperature Dewpoint
-3°C / 27°F -8°C / 18°F
Humidity Altimeter Pressure
69% 30.09" Hg 1018.9 hPa